Time;durP1;ratioP1;P1;durP2;ratioP2;P2;SDS_P1;SDS_P2;PMS_P1;PMS_P2;Temp;Humidity;BMP_temperature;BMP_pressure;BME280_temperature;BME280_humidity;BME280_pressure;Samples;Min_cycle;Max_cycle;Signal;HPM_P1;HPM_P2
2022/03/07 00:01:26;;;;;;;9.85;8.82;;;2.70;69.70;;;;;;6116823;23;20200;-75
2022/03/07 00:03:54;;;;;;;9.70;8.80;;;2.60;70.30;;;;;;6117886;23;20238;-74
2022/03/07 00:06:22;;;;;;;9.70;8.90;;;2.50;70.90;;;;;;6119121;23;20277;-75
2022/03/07 00:08:49;;;;;;;9.55;8.65;;;2.40;71.40;;;;;;6104984;23;20713;-74
2022/03/07 00:11:17;;;;;;;9.98;8.98;;;2.40;71.70;;;;;;6109366;23;20633;-74
2022/03/07 00:13:44;;;;;;;10.10;9.20;;;2.30;72.30;;;;;;6099794;23;20212;-74
2022/03/07 00:16:11;;;;;;;9.93;8.98;;;2.30;72.80;;;;;;6118839;23;20195;-74
2022/03/07 00:18:38;;;;;;;9.90;8.90;;;2.40;73.00;;;;;;6120557;23;20226;-74
2022/03/07 00:21:07;;;;;;;9.95;9.05;;;2.30;73.20;;;;;;6115964;23;20274;-74
2022/03/07 00:23:35;;;;;;;9.38;8.57;;;2.40;73.70;;;;;;6119452;23;20849;-74
2022/03/07 00:26:02;;;;;;;9.70;8.77;;;2.50;74.10;;;;;;6108593;23;20644;-74
2022/03/07 00:28:29;;;;;;;9.32;8.52;;;2.40;74.10;;;;;;6118957;23;20192;-75
2022/03/07 00:30:56;;;;;;;10.23;9.23;;;2.40;74.10;;;;;;6117794;23;20189;-74
2022/03/07 00:33:23;;;;;;;10.00;9.05;;;2.40;74.20;;;;;;6105581;23;20754;-74
2022/03/07 00:35:50;;;;;;;9.75;8.93;;;2.40;74.30;;;;;;6114419;23;20734;-74
2022/03/07 00:38:17;;;;;;;9.55;8.75;;;2.40;74.40;;;;;;6118582;23;20311;-74
2022/03/07 00:40:45;;;;;;;8.98;8.27;;;2.30;74.40;;;;;;6116235;23;20887;-75
2022/03/07 00:43:13;;;;;;;9.70;8.80;;;2.30;74.60;;;;;;6092405;23;20208;-74
2022/03/07 00:45:40;;;;;;;9.25;8.35;;;2.30;74.50;;;;;;6116727;23;20225;-74
2022/03/07 00:48:08;;;;;;;9.98;8.98;;;2.20;74.50;;;;;;6103846;23;20238;-75
2022/03/07 00:50:35;;;;;;;8.65;7.85;;;2.30;74.40;;;;;;6113985;23;20271;-75
2022/03/07 00:53:02;;;;;;;9.52;8.68;;;2.20;73.90;;;;;;6117940;23;20188;-74
2022/03/07 00:55:29;;;;;;;9.00;8.23;;;2.20;73.70;;;;;;6117751;23;20198;-74
2022/03/07 00:57:58;;;;;;;9.30;8.48;;;2.10;74.00;;;;;;6116137;23;20228;-74
2022/03/07 01:00:25;;;;;;;8.45;7.75;;;2.10;74.30;;;;;;6119476;23;20546;-75
2022/03/07 01:02:51;;;;;;;8.98;8.10;;;2.00;74.40;;;;;;6106391;23;20193;-75
2022/03/07 01:05:19;;;;;;;7.80;7.10;;;2.10;74.80;;;;;;6102321;23;20193;-74
2022/03/07 01:07:46;;;;;;;9.30;8.40;;;2.10;74.90;;;;;;6119820;23;20546;-74
2022/03/07 01:10:14;;;;;;;8.35;7.65;;;2.00;74.30;;;;;;6105046;23;20612;-74
2022/03/07 01:12:41;;;;;;;8.95;8.15;;;2.00;74.40;;;;;;6115706;23;20249;-74
2022/03/07 01:15:10;;;;;;;8.88;8.07;;;2.00;74.30;;;;;;6115881;23;20614;-75
2022/03/07 01:17:38;;;;;;;8.05;7.35;;;1.90;74.50;;;;;;6108318;23;20221;-74
2022/03/07 01:20:08;;;;;;;8.70;8.00;;;1.90;74.90;;;;;;6119215;23;20207;-74
2022/03/07 01:22:36;;;;;;;8.38;7.78;;;2.00;75.20;;;;;;6109336;23;20681;-74
2022/03/07 01:25:03;;;;;;;8.23;7.50;;;1.90;74.60;;;;;;6096675;23;20241;-75
2022/03/07 01:27:30;;;;;;;8.52;7.68;;;2.00;74.40;;;;;;6119128;23;20196;-74
2022/03/07 01:29:57;;;;;;;7.88;7.18;;;2.00;74.40;;;;;;6109048;23;20255;-74
2022/03/07 01:32:26;;;;;;;8.32;7.63;;;2.00;74.30;;;;;;6109626;23;20284;-74
2022/03/07 01:34:53;;;;;;;8.73;8.00;;;1.90;74.00;;;;;;6115943;23;20213;-75
2022/03/07 01:37:20;;;;;;;9.55;8.75;;;1.80;73.90;;;;;;6101002;23;20232;-74
2022/03/07 01:39:47;;;;;;;9.10;8.20;;;1.70;73.70;;;;;;6119443;23;20194;-74
2022/03/07 01:42:14;;;;;;;8.00;7.40;;;1.70;73.50;;;;;;6115446;23;20547;-74
2022/03/07 01:44:41;;;;;;;8.00;7.30;;;1.60;74.00;;;;;;6106218;23;20594;-74
2022/03/07 01:47:08;;;;;;;8.95;8.05;;;1.60;74.40;;;;;;6114287;23;20207;-74
2022/03/07 01:49:36;;;;;;;8.45;7.65;;;1.60;74.40;;;;;;6099211;23;20276;-74
2022/03/07 01:52:05;;;;;;;8.35;7.55;;;1.60;74.60;;;;;;6116126;23;20193;-74
2022/03/07 01:54:31;;;;;;;8.10;7.35;;;1.60;74.60;;;;;;6119253;23;20207;-74
2022/03/07 01:56:59;;;;;;;8.70;8.00;;;1.50;74.40;;;;;;6113681;23;20218;-74
2022/03/07 01:59:28;;;;;;;8.63;7.93;;;1.50;74.70;;;;;;6101496;23;20196;-74
2022/03/07 02:01:56;;;;;;;9.13;8.32;;;1.50;74.80;;;;;;6106115;23;20193;-74
2022/03/07 02:04:23;;;;;;;8.40;7.70;;;1.50;74.80;;;;;;6120950;23;20210;-74
2022/03/07 02:06:52;;;;;;;10.20;9.25;;;1.40;74.80;;;;;;6117459;23;20283;-74
2022/03/07 02:09:18;;;;;;;8.88;8.00;;;1.30;74.70;;;;;;6114503;23;20200;-74
2022/03/07 02:11:46;;;;;;;9.30;8.43;;;1.30;74.70;;;;;;6107313;23;20275;-74
2022/03/07 02:14:14;;;;;;;8.07;7.38;;;1.20;75.10;;;;;;6118809;23;20215;-74
2022/03/07 02:16:42;;;;;;;8.70;7.90;;;1.10;74.90;;;;;;6118248;23;20192;-74
2022/03/07 02:19:09;;;;;;;9.93;8.95;;;1.00;74.80;;;;;;6117249;23;20238;-74
2022/03/07 02:21:39;;;;;;;8.93;8.15;;;1.00;75.10;;;;;;6115908;23;20219;-74
2022/03/07 02:24:08;;;;;;;10.10;9.20;;;1.00;75.40;;;;;;6116688;23;20575;-74
2022/03/07 02:26:35;;;;;;;10.30;9.27;;;0.90;75.60;;;;;;6105016;23;20191;-74
2022/03/07 02:29:03;;;;;;;8.75;8.05;;;0.80;75.50;;;;;;6110560;23;20650;-74
2022/03/07 02:31:30;;;;;;;9.48;8.50;;;0.80;75.60;;;;;;6115298;23;20546;-74
2022/03/07 02:33:57;;;;;;;9.73;8.82;;;0.70;75.60;;;;;;6116999;23;20298;-74
2022/03/07 02:36:24;;;;;;;8.80;8.00;;;0.70;75.60;;;;;;6118222;23;20257;-74
2022/03/07 02:38:51;;;;;;;9.77;8.55;;;0.70;75.90;;;;;;6118114;23;20695;-74
2022/03/07 02:41:20;;;;;;;9.38;8.50;;;0.70;76.00;;;;;;6118084;23;20188;-74
2022/03/07 02:43:47;;;;;;;9.80;8.80;;;0.60;76.00;;;;;;6114155;23;20295;-74
2022/03/07 02:46:14;;;;;;;10.45;9.45;;;0.60;76.70;;;;;;6117143;23;20299;-74
2022/03/07 02:48:41;;;;;;;10.13;9.25;;;0.50;76.40;;;;;;6107124;23;20313;-75
2022/03/07 02:51:09;;;;;;;10.13;9.23;;;0.50;76.50;;;;;;6117594;23;20278;-74
2022/03/07 02:53:36;;;;;;;9.40;8.55;;;0.50;76.70;;;;;;6117957;23;20207;-75
2022/03/07 02:56:03;;;;;;;9.82;8.88;;;0.40;76.60;;;;;;6117948;23;20188;-74
2022/03/07 02:58:31;;;;;;;10.52;9.52;;;0.40;77.00;;;;;;6111291;23;20226;-74
2022/03/07 03:00:58;;;;;;;9.48;8.65;;;0.40;77.40;;;;;;6118651;23;20184;-74
2022/03/07 03:03:25;;;;;;;10.00;9.10;;;0.40;77.30;;;;;;6106304;23;20238;-75
2022/03/07 03:05:54;;;;;;;11.45;10.40;;;0.30;77.00;;;;;;6115417;23;20263;-74
2022/03/07 03:08:21;;;;;;;10.52;9.63;;;0.30;77.20;;;;;;6119263;23;20442;-74
2022/03/07 03:10:49;;;;;;;10.45;9.45;;;0.20;76.90;;;;;;6108439;23;20593;-74
2022/03/07 03:13:17;;;;;;;10.65;9.65;;;0.10;77.00;;;;;;6097851;23;20209;-74
2022/03/07 03:15:45;;;;;;;10.80;9.80;;;0.00;76.80;;;;;;6096128;23;20242;-74
2022/03/07 03:18:12;;;;;;;11.48;10.38;;;0.00;77.40;;;;;;6119796;23;20269;-74
2022/03/07 03:20:39;;;;;;;11.10;10.10;;;0.00;77.70;;;;;;6116863;23;20194;-74
2022/03/07 03:23:07;;;;;;;11.13;10.18;;;-0.10;78.10;;;;;;6110574;23;20212;-74
2022/03/07 03:25:34;;;;;;;11.73;10.25;;;-0.10;77.80;;;;;;6116835;23;20188;-74
2022/03/07 03:28:01;;;;;;;11.02;10.02;;;-0.20;77.60;;;;;;6117250;23;20279;-74
2022/03/07 03:30:28;;;;;;;11.15;10.13;;;-0.20;77.70;;;;;;6114852;23;20191;-74
2022/03/07 03:32:57;;;;;;;10.85;9.80;;;-0.30;78.00;;;;;;6103058;23;20207;-75
2022/03/07 03:35:24;;;;;;;12.00;10.90;;;-0.30;78.50;;;;;;6104433;23;20196;-74
2022/03/07 03:37:51;;;;;;;11.38;10.23;;;-0.30;78.40;;;;;;6103068;23;20764;-74
2022/03/07 03:40:19;;;;;;;12.35;11.25;;;-0.30;78.50;;;;;;6118362;23;20202;-76
2022/03/07 03:42:46;;;;;;;12.43;11.23;;;-0.30;79.00;;;;;;6105215;23;20208;-74
2022/03/07 03:45:14;;;;;;;11.75;10.55;;;-0.30;78.90;;;;;;6117276;23;20223;-75
2022/03/07 03:47:43;;;;;;;11.68;10.48;;;-0.20;79.10;;;;;;6106756;23;20278;-74
2022/03/07 03:50:13;;;;;;;12.45;10.77;;;-0.20;78.90;;;;;;6092360;23;20196;-74
2022/03/07 03:52:40;;;;;;;11.07;10.07;;;-0.20;79.20;;;;;;6118257;23;20214;-74
2022/03/07 03:55:10;;;;;;;11.80;10.70;;;-0.20;78.70;;;;;;6119334;23;20188;-75
2022/03/07 03:57:37;;;;;;;11.30;10.30;;;-0.20;79.20;;;;;;6116680;23;20747;-74
2022/03/07 04:00:05;;;;;;;11.93;10.73;;;-0.20;79.20;;;;;;6113982;23;20537;-74
2022/03/07 04:02:33;;;;;;;11.95;10.85;;;-0.20;79.40;;;;;;6113574;23;20213;-75
2022/03/07 04:04:59;;;;;;;12.10;10.45;;;-0.10;79.50;;;;;;6111211;23;20188;-74
2022/03/07 04:07:28;;;;;;;11.52;10.48;;;-0.10;79.50;;;;;;6094898;23;20601;-75
2022/03/07 04:09:55;;;;;;;13.32;12.00;;;-0.10;79.70;;;;;;6114413;23;20333;-74
2022/03/07 04:12:22;;;;;;;11.60;10.50;;;-0.10;79.80;;;;;;6115205;23;20195;-75
2022/03/07 04:14:48;;;;;;;11.55;10.45;;;0.00;79.90;;;;;;6111883;23;20295;-74
2022/03/07 04:17:15;;;;;;;11.60;10.50;;;0.00;80.00;;;;;;6098476;23;20270;-74
2022/03/07 04:19:42;;;;;;;11.70;10.50;;;0.00;80.10;;;;;;6115206;23;20306;-74
2022/03/07 04:22:09;;;;;;;11.63;10.38;;;0.10;80.20;;;;;;6115521;23;20267;-73
2022/03/07 04:24:39;;;;;;;11.00;10.00;;;0.10;80.20;;;;;;6098960;23;20211;-74
2022/03/07 04:27:06;;;;;;;11.52;10.43;;;0.10;80.20;;;;;;6114565;23;20210;-74
2022/03/07 04:29:33;;;;;;;12.05;10.88;;;0.20;80.60;;;;;;6108834;23;20199;-74
2022/03/07 04:32:00;;;;;;;11.65;10.55;;;0.20;80.40;;;;;;6106001;23;20278;-73
2022/03/07 04:34:27;;;;;;;11.23;10.13;;;0.20;80.30;;;;;;6110544;23;20242;-74
2022/03/07 04:36:54;;;;;;;11.20;10.20;;;0.20;80.00;;;;;;6092540;23;20188;-74
2022/03/07 04:39:23;;;;;;;12.57;11.32;;;0.20;80.20;;;;;;6107990;23;20296;-74
2022/03/07 04:41:52;;;;;;;11.23;10.13;;;0.20;80.20;;;;;;6115708;23;20219;-75
2022/03/07 04:44:19;;;;;;;11.45;10.35;;;0.30;80.20;;;;;;6116558;23;20239;-74
2022/03/07 04:46:46;;;;;;;11.20;10.15;;;0.30;80.20;;;;;;6114556;23;20198;-74
2022/03/07 04:49:13;;;;;;;11.30;10.10;;;0.30;80.30;;;;;;6121598;23;20226;-73
2022/03/07 04:51:45;;;;;;;11.50;10.50;;;0.30;80.40;;;;;;6114893;23;20195;-74
2022/03/07 04:54:13;;;;;;;11.68;10.20;;;0.30;80.60;;;;;;6113420;23;20320;-74
2022/03/07 04:56:43;;;;;;;11.35;10.15;;;0.30;81.10;;;;;;6116726;23;20188;-74
2022/03/07 04:59:13;;;;;;;10.35;9.35;;;0.30;81.80;;;;;;6118257;23;20250;-74
2022/03/07 05:01:41;;;;;;;10.75;9.65;;;0.30;82.50;;;;;;6103655;23;20192;-74
2022/03/07 05:04:08;;;;;;;11.10;9.63;;;0.30;83.10;;;;;;6119998;23;20207;-74
2022/03/07 05:06:35;;;;;;;10.77;9.73;;;0.30;83.70;;;;;;6104690;23;20188;-74
2022/03/07 05:09:03;;;;;;;10.40;9.40;;;0.30;84.00;;;;;;6114910;23;20230;-75
2022/03/07 05:11:29;;;;;;;10.35;9.40;;;0.20;84.50;;;;;;6113653;23;20213;-75
2022/03/07 05:13:56;;;;;;;10.18;9.18;;;0.20;85.00;;;;;;6106797;23;20215;-74
2022/03/07 05:16:25;;;;;;;10.43;9.38;;;0.20;85.00;;;;;;6101549;23;20195;-76
2022/03/07 05:18:52;;;;;;;10.63;9.63;;;0.20;84.40;;;;;;6112159;23;20294;-76
2022/03/07 05:21:18;;;;;;;35.17;24.40;;;0.30;84.50;;;;;;6106587;23;20214;-74
2022/03/07 05:23:45;;;;;;;13.90;12.43;;;0.30;84.50;;;;;;6108823;23;20231;-74
2022/03/07 05:26:12;;;;;;;12.48;11.40;;;0.30;84.20;;;;;;6118572;23;20567;-74
2022/03/07 05:28:39;;;;;;;12.38;11.18;;;0.20;84.20;;;;;;6115513;23;20235;-74
2022/03/07 05:31:09;;;;;;;11.48;10.23;;;0.20;84.60;;;;;;6119707;23;20210;-75
2022/03/07 05:33:37;;;;;;;10.50;9.52;;;0.10;85.20;;;;;;6116850;23;20215;-75
2022/03/07 05:36:05;;;;;;;11.27;10.13;;;0.10;85.80;;;;;;6104291;23;20271;-74
2022/03/07 05:38:32;;;;;;;11.05;10.02;;;0.10;86.40;;;;;;6119599;23;20429;-75
2022/03/07 05:40:59;;;;;;;11.35;10.18;;;0.10;86.70;;;;;;6118983;23;20191;-74
2022/03/07 05:43:27;;;;;;;10.35;9.35;;;0.10;87.00;;;;;;6110507;23;20217;-76
2022/03/07 05:45:54;;;;;;;10.18;9.18;;;0.10;87.50;;;;;;6107502;23;20229;-76
2022/03/07 05:48:21;;;;;;;10.95;9.95;;;0.10;87.90;;;;;;6106156;23;20262;-75
2022/03/07 05:50:49;;;;;;;9.75;8.73;;;0.10;88.50;;;;;;6108610;23;20259;-76
2022/03/07 05:53:21;;;;;;;10.82;9.82;;;0.10;89.10;;;;;;6113274;23;20211;-76
2022/03/07 05:55:48;;;;;;;10.10;9.10;;;0.10;89.90;;;;;;6111764;23;20218;-74
2022/03/07 05:58:15;;;;;;;10.18;9.27;;;0.00;90.20;;;;;;6113859;23;20233;-73
2022/03/07 06:00:42;;;;;;;9.60;8.60;;;0.00;90.50;;;;;;6117275;23;20198;-75
2022/03/07 06:03:09;;;;;;;11.70;9.07;;;0.00;90.70;;;;;;6113539;23;20204;-73
2022/03/07 06:05:36;;;;;;;9.52;8.63;;;-0.10;91.00;;;;;;6102170;23;20183;-72
2022/03/07 06:08:05;;;;;;;9.55;8.65;;;0.00;91.20;;;;;;6109180;23;20184;-74
2022/03/07 06:10:32;;;;;;;12.73;11.05;;;0.00;91.40;;;;;;6111016;23;20225;-74
2022/03/07 06:12:59;;;;;;;10.52;9.63;;;0.00;91.60;;;;;;6110591;23;20291;-73
2022/03/07 06:15:27;;;;;;;12.27;8.98;;;0.00;91.70;;;;;;6109953;23;20262;-76
2022/03/07 06:17:55;;;;;;;9.90;8.68;;;0.00;91.80;;;;;;6107897;23;20205;-76
2022/03/07 06:20:24;;;;;;;11.88;9.00;;;0.00;92.00;;;;;;6119791;23;20184;-75
2022/03/07 06:22:51;;;;;;;9.85;8.85;;;0.00;91.80;;;;;;6118356;23;20207;-75
2022/03/07 06:25:20;;;;;;;9.73;8.55;;;0.10;92.10;;;;;;6119515;23;20595;-75
2022/03/07 06:27:47;;;;;;;9.27;8.38;;;0.10;92.00;;;;;;6117524;23;20191;-76
2022/03/07 06:30:14;;;;;;;9.48;8.43;;;0.20;91.90;;;;;;6108491;23;20188;-75
2022/03/07 06:32:41;;;;;;;11.48;9.45;;;0.20;91.80;;;;;;6109844;23;20218;-76
2022/03/07 06:35:08;;;;;;;10.55;9.45;;;0.30;91.90;;;;;;6101050;23;20184;-75
2022/03/07 06:37:36;;;;;;;8.80;8.00;;;0.50;91.80;;;;;;6098455;23;20221;-75
2022/03/07 06:40:03;;;;;;;8.43;7.70;;;0.70;91.50;;;;;;6106404;23;20219;-75
2022/03/07 06:42:31;;;;;;;8.60;7.53;;;1.00;91.10;;;;;;6105969;23;20208;-76
2022/03/07 06:44:58;;;;;;;10.55;9.55;;;1.20;90.30;;;;;;6109786;23;20187;-76
2022/03/07 06:47:25;;;;;;;10.75;9.65;;;1.30;89.50;;;;;;6109991;23;20191;-76
2022/03/07 06:49:56;;;;;;;8.85;8.05;;;1.30;88.90;;;;;;6115275;23;20219;-77
2022/03/07 06:52:24;;;;;;;8.65;7.90;;;1.30;88.90;;;;;;6117015;23;20214;-75
2022/03/07 06:54:51;;;;;;;8.05;7.25;;;1.40;88.50;;;;;;6117136;23;20192;-76
2022/03/07 06:57:18;;;;;;;10.50;9.60;;;1.60;88.80;;;;;;6113954;23;20192;-75
2022/03/07 06:59:47;;;;;;;11.98;10.77;;;2.10;87.80;;;;;;6111216;23;20214;-76
2022/03/07 07:02:14;;;;;;;10.68;8.20;;;2.70;85.50;;;;;;6118056;23;20276;-76
2022/03/07 07:04:41;;;;;;;11.15;10.00;;;3.40;83.00;;;;;;6111245;23;20190;-76
2022/03/07 07:07:08;;;;;;;9.90;7.85;;;4.00;81.00;;;;;;6102909;23;20539;-77
2022/03/07 07:09:35;;;;;;;8.20;7.40;;;4.50;78.00;;;;;;6112108;23;20274;-76
2022/03/07 07:12:02;;;;;;;7.97;7.28;;;4.90;76.40;;;;;;6113341;23;20294;-76
2022/03/07 07:14:30;;;;;;;8.10;7.30;;;5.20;74.80;;;;;;6106978;23;20236;-76
2022/03/07 07:16:58;;;;;;;8.43;7.63;;;5.40;72.90;;;;;;6117353;23;20266;-77
2022/03/07 07:19:26;;;;;;;8.57;7.72;;;5.40;72.40;;;;;;6116953;23;20241;-76
2022/03/07 07:21:54;;;;;;;9.10;8.20;;;5.40;71.90;;;;;;6112893;23;21075;-76
2022/03/07 07:24:21;;;;;;;9.07;8.15;;;5.30;71.70;;;;;;6106191;23;20183;-76
2022/03/07 07:26:48;;;;;;;10.10;8.02;;;5.10;71.80;;;;;;6110422;23;20706;-76
2022/03/07 07:29:15;;;;;;;9.30;8.32;;;4.90;71.90;;;;;;6103736;23;20195;-76
2022/03/07 07:31:42;;;;;;;9.90;8.90;;;4.80;72.30;;;;;;6100151;23;20516;-76
2022/03/07 07:34:10;;;;;;;9.52;8.45;;;4.70;72.40;;;;;;6119124;23;20193;-77
2022/03/07 07:36:38;;;;;;;8.48;7.82;;;4.60;73.00;;;;;;6107890;23;20263;-76
2022/03/07 07:39:05;;;;;;;8.30;7.50;;;4.80;72.50;;;;;;6099774;23;20218;-77
2022/03/07 07:41:32;;;;;;;7.55;6.95;;;5.50;72.20;;;;;;6102330;23;20192;-76
2022/03/07 07:43:59;;;;;;;8.27;7.57;;;6.30;69.80;;;;;;6102298;23;20606;-74
2022/03/07 07:46:25;;;;;;;8.10;7.30;;;7.10;66.70;;;;;;6099443;23;20918;-74
2022/03/07 07:48:53;;;;;;;7.88;6.82;;;7.60;65.40;;;;;;6101755;23;20194;-74
2022/03/07 07:51:21;;;;;;;7.80;7.00;;;7.60;64.30;;;;;;6107905;23;20180;-74
2022/03/07 07:53:48;;;;;;;8.18;7.47;;;7.90;62.50;;;;;;6116236;23;20282;-74
2022/03/07 07:56:15;;;;;;;8.70;8.00;;;8.10;62.00;;;;;;6113304;23;20181;-74
2022/03/07 07:58:42;;;;;;;8.68;7.97;;;8.60;60.60;;;;;;6104806;23;20192;-74
2022/03/07 08:01:09;;;;;;;8.15;7.45;;;8.80;58.50;;;;;;6118724;23;20223;-74
2022/03/07 08:03:36;;;;;;;8.63;7.88;;;8.40;60.00;;;;;;6111636;23;20235;-74
2022/03/07 08:06:04;;;;;;;8.20;7.53;;;8.60;59.30;;;;;;6116038;23;20638;-74
2022/03/07 08:08:32;;;;;;;8.73;7.82;;;8.80;59.40;;;;;;6106423;23;20302;-74
2022/03/07 08:10:59;;;;;;;8.30;7.50;;;9.10;58.50;;;;;;6112752;23;20222;-74
2022/03/07 08:13:26;;;;;;;10.07;9.15;;;9.70;58.40;;;;;;6095939;23;20285;-75
2022/03/07 08:15:54;;;;;;;9.23;8.43;;;10.30;56.30;;;;;;6097990;23;20802;-76
2022/03/07 08:18:23;;;;;;;9.52;8.50;;;10.30;54.90;;;;;;6116424;23;20272;-76
2022/03/07 08:20:51;;;;;;;9.80;8.90;;;10.60;55.30;;;;;;6108869;23;20226;-74
2022/03/07 08:23:18;;;;;;;8.98;8.18;;;10.30;52.80;;;;;;6098897;23;20202;-74
2022/03/07 08:25:46;;;;;;;9.05;8.30;;;10.00;53.30;;;;;;6083481;23;20192;-72
2022/03/07 08:28:13;;;;;;;9.02;8.27;;;9.60;54.80;;;;;;6103668;23;20189;-74
2022/03/07 08:30:40;;;;;;;8.82;8.02;;;9.90;54.50;;;;;;6112990;23;20180;-74
2022/03/07 08:33:07;;;;;;;9.23;8.40;;;9.30;53.70;;;;;;6104696;23;20200;-75
2022/03/07 08:35:35;;;;;;;9.32;8.52;;;8.30;54.30;;;;;;6114343;23;20215;-74
2022/03/07 08:38:02;;;;;;;9.52;8.68;;;7.90;56.10;;;;;;6106012;23;20242;-74
2022/03/07 08:40:29;;;;;;;8.90;8.10;;;8.10;56.70;;;;;;6114012;23;20216;-74
2022/03/07 08:42:58;;;;;;;8.85;7.90;;;8.70;56.10;;;;;;6111387;23;20203;-74
2022/03/07 08:45:26;;;;;;;9.27;8.38;;;8.40;55.30;;;;;;6097153;23;20228;-74
2022/03/07 08:47:53;;;;;;;9.38;8.57;;;8.70;55.90;;;;;;6117095;23;20525;-75
2022/03/07 08:50:20;;;;;;;11.02;10.05;;;9.20;54.70;;;;;;6107739;23;20300;-74
2022/03/07 08:52:48;;;;;;;10.70;9.68;;;8.60;54.90;;;;;;6102876;23;20291;-74
2022/03/07 08:55:16;;;;;;;10.35;9.35;;;8.20;55.60;;;;;;6106758;23;20295;-74
2022/03/07 08:57:43;;;;;;;9.65;8.65;;;8.20;55.30;;;;;;6093839;23;20188;-74
2022/03/07 09:00:14;;;;;;;10.40;9.40;;;7.80;55.50;;;;;;6109536;23;20207;-74
2022/03/07 09:02:41;;;;;;;9.45;8.55;;;8.20;55.60;;;;;;6114168;23;20204;-74
2022/03/07 09:05:09;;;;;;;10.30;9.30;;;8.00;55.10;;;;;;6105730;23;20186;-74
2022/03/07 09:07:37;;;;;;;10.00;9.10;;;7.30;55.80;;;;;;6106560;23;20191;-74
2022/03/07 09:10:04;;;;;;;9.48;8.68;;;7.10;56.50;;;;;;6109138;23;20259;-74
2022/03/07 09:12:31;;;;;;;9.35;8.55;;;7.60;56.60;;;;;;6117329;23;20290;-74
2022/03/07 09:15:00;;;;;;;8.68;7.88;;;8.40;54.80;;;;;;6105648;23;20237;-74
2022/03/07 09:17:28;;;;;;;9.55;8.75;;;9.20;54.20;;;;;;6110637;23;20259;-75
2022/03/07 09:19:56;;;;;;;10.18;9.27;;;8.60;52.90;;;;;;6098006;23;20650;-74
2022/03/07 09:22:24;;;;;;;10.25;9.27;;;8.30;53.60;;;;;;6112468;23;20208;-74
2022/03/07 09:24:52;;;;;;;10.63;9.27;;;7.60;54.70;;;;;;6106382;23;20263;-75
2022/03/07 09:27:19;;;;;;;9.48;8.65;;;6.70;56.00;;;;;;6114319;23;20582;-74
2022/03/07 09:29:46;;;;;;;9.70;8.80;;;6.60;57.70;;;;;;6112389;23;20198;-75
2022/03/07 09:32:13;;;;;;;9.60;8.65;;;7.40;57.20;;;;;;6107573;23;20248;-74
2022/03/07 09:34:41;;;;;;;9.23;8.43;;;8.20;56.50;;;;;;6117068;23;20189;-74
2022/03/07 09:37:10;;;;;;;10.23;9.32;;;8.60;54.20;;;;;;6107054;23;20575;-75
2022/03/07 09:39:37;;;;;;;9.45;8.55;;;9.00;54.50;;;;;;6112045;23;20220;-74
2022/03/07 09:42:05;;;;;;;9.43;8.57;;;9.80;53.00;;;;;;6114595;23;20209;-74
2022/03/07 09:44:32;;;;;;;10.32;9.43;;;10.10;51.80;;;;;;6107757;23;20197;-74
2022/03/07 09:47:00;;;;;;;10.35;9.48;;;9.20;51.80;;;;;;6110760;23;20221;-74
2022/03/07 09:49:28;;;;;;;9.25;8.45;;;9.10;52.60;;;;;;6110592;23;20202;-74
2022/03/07 09:51:56;;;;;;;9.70;8.70;;;9.10;52.10;;;;;;6103377;23;20291;-74
2022/03/07 09:54:24;;;;;;;9.45;8.65;;;9.30;52.90;;;;;;6106561;23;20635;-74
2022/03/07 09:56:52;;;;;;;9.85;8.95;;;8.90;52.10;;;;;;6113338;23;20195;-74
2022/03/07 09:59:19;;;;;;;9.70;8.90;;;8.80;52.20;;;;;;6108571;23;20319;-74
2022/03/07 10:01:57;;;;;;;10.25;9.35;;;9.10;52.60;;;;;;6117045;23;20231;-74
2022/03/07 10:04:25;;;;;;;9.30;8.50;;;9.10;51.80;;;;;;6111134;23;20188;-74
2022/03/07 10:06:52;;;;;;;10.38;9.48;;;9.00;52.40;;;;;;6106781;23;20707;-74
2022/03/07 10:09:26;;;;;;;9.95;9.05;;;8.50;52.20;;;;;;6104486;23;20187;-74
2022/03/07 10:11:54;;;;;;;9.55;8.75;;;8.60;52.60;;;;;;6111283;23;20259;-74
2022/03/07 10:14:31;;;;;;;10.10;9.25;;;8.70;52.70;;;;;;6111106;23;20179;-74
2022/03/07 10:16:59;;;;;;;10.00;9.00;;;8.10;51.80;;;;;;6106886;23;20179;-74
2022/03/07 10:19:26;;;;;;;9.52;8.73;;;8.00;53.40;;;;;;6103923;23;20192;-74
2022/03/07 10:21:54;;;;;;;10.13;9.18;;;8.80;52.70;;;;;;6107601;23;20212;-74
2022/03/07 10:24:33;;;;;;;9.50;8.70;;;9.20;52.60;;;;;;6111340;23;20624;-74
2022/03/07 10:27:00;;;;;;;9.40;8.60;;;10.10;50.10;;;;;;6106698;23;20188;-74
2022/03/07 10:29:28;;;;;;;10.05;9.15;;;10.00;48.80;;;;;;6104637;23;20188;-74
2022/03/07 10:31:55;;;;;;;8.98;8.18;;;9.70;50.30;;;;;;6105981;23;20570;-74
2022/03/07 10:34:22;;;;;;;9.75;8.95;;;9.50;50.10;;;;;;6104022;23;20238;-74
2022/03/07 10:36:49;;;;;;;9.88;9.07;;;9.50;50.50;;;;;;6107766;23;20211;-74
2022/03/07 10:39:23;;;;;;;9.73;8.88;;;9.20;50.10;;;;;;6108836;23;20190;-74
2022/03/07 10:41:52;;;;;;;9.20;8.40;;;7.70;51.90;;;;;;6103284;23;20202;-74
2022/03/07 10:44:28;;;;;;;10.50;9.60;;;7.40;52.80;;;;;;6098527;23;20574;-73
2022/03/07 10:47:06;;;;;;;9.23;8.43;;;7.00;53.40;;;;;;6106917;23;20183;-73
2022/03/07 10:49:34;;;;;;;10.15;9.20;;;8.00;52.80;;;;;;6103757;23;20191;-74
2022/03/07 10:52:04;;;;;;;9.00;8.23;;;8.60;52.10;;;;;;6106605;23;20203;-74
2022/03/07 10:54:36;;;;;;;8.85;8.07;;;8.50;51.20;;;;;;6106727;23;20180;-74
2022/03/07 10:57:07;;;;;;;10.05;9.20;;;9.00;52.10;;;;;;6118321;23;20183;-75
2022/03/07 10:59:35;;;;;;;9.75;9.00;;;10.10;49.80;;;;;;6104907;23;20748;-74
2022/03/07 11:02:09;;;;;;;9.80;8.93;;;11.00;48.50;;;;;;6103412;23;20286;-74
2022/03/07 11:04:37;;;;;;;9.30;8.50;;;12.00;47.10;;;;;;6101654;23;20189;-74
2022/03/07 11:07:05;;;;;;;9.02;8.23;;;12.00;46.80;;;;;;6118392;23;20229;-74
2022/03/07 11:09:34;;;;;;;8.95;8.25;;;12.60;46.40;;;;;;6113400;23;20195;-74
2022/03/07 11:12:02;;;;;;;10.18;9.27;;;12.90;45.00;;;;;;6109880;23;20701;-74
2022/03/07 11:14:30;;;;;;;9.43;8.68;;;13.40;44.50;;;;;;6112190;23;20270;-74
2022/03/07 11:16:59;;;;;;;10.15;9.15;;;13.60;44.30;;;;;;6116936;23;20258;-74
2022/03/07 11:19:27;;;;;;;10.18;9.38;;;12.90;44.00;;;;;;6106647;23;20191;-74
2022/03/07 11:21:56;;;;;;;9.90;9.10;;;12.50;44.30;;;;;;6111135;23;20675;-74
2022/03/07 11:24:25;;;;;;;8.95;8.18;;;12.30;44.50;;;;;;6097268;23;20528;-74
2022/03/07 11:26:54;;;;;;;9.40;8.70;;;12.60;44.40;;;;;;6104560;23;20187;-75
2022/03/07 11:29:34;;;;;;;8.80;8.18;;;11.90;44.30;;;;;;6117026;23;20214;-74
2022/03/07 11:32:03;;;;;;;10.13;9.32;;;11.70;45.10;;;;;;6111549;23;20213;-74
2022/03/07 11:34:30;;;;;;;8.98;8.32;;;11.40;44.30;;;;;;6109882;23;20183;-75
2022/03/07 11:36:57;;;;;;;9.50;8.80;;;11.60;44.80;;;;;;6103256;23;20741;-74
2022/03/07 11:39:32;;;;;;;9.40;8.60;;;11.30;44.50;;;;;;6116179;23;20186;-74
2022/03/07 11:42:09;;;;;;;8.50;7.90;;;11.60;45.40;;;;;;6107033;23;20225;-74
2022/03/07 11:44:38;;;;;;;9.27;8.48;;;11.40;44.60;;;;;;6108547;23;20635;-74
2022/03/07 11:47:13;;;;;;;10.00;9.10;;;11.50;44.80;;;;;;6116632;23;20214;-74
2022/03/07 11:49:41;;;;;;;9.20;8.50;;;11.00;44.60;;;;;;6113249;23;20211;-74
2022/03/07 11:52:10;;;;;;;9.32;8.63;;;10.70;44.80;;;;;;6112503;23;20657;-74
2022/03/07 11:54:51;;;;;;;9.95;9.10;;;10.90;44.90;;;;;;6107417;23;20196;-74
2022/03/07 11:57:19;;;;;;;9.70;8.90;;;10.80;45.40;;;;;;6101149;23;20274;-74
2022/03/07 11:59:47;;;;;;;9.52;8.73;;;11.10;44.80;;;;;;6112787;23;20205;-74
2022/03/07 12:02:14;;;;;;;10.30;9.40;;;11.30;44.10;;;;;;6109151;23;20206;-74
2022/03/07 12:04:43;;;;;;;9.50;8.60;;;11.90;44.30;;;;;;6116370;23;20189;-75
2022/03/07 12:07:10;;;;;;;10.02;9.23;;;12.50;44.50;;;;;;6107541;23;20188;-75
2022/03/07 12:09:38;;;;;;;9.30;8.57;;;13.70;43.30;;;;;;6111040;23;20187;-75
2022/03/07 12:12:07;;;;;;;10.70;9.75;;;14.20;42.10;;;;;;6110495;23;20207;-74
2022/03/07 12:14:36;;;;;;;9.75;9.02;;;12.90;41.30;;;;;;6116026;23;20211;-75
2022/03/07 12:17:13;;;;;;;10.63;9.63;;;12.40;42.00;;;;;;6108149;23;20697;-75
2022/03/07 12:19:41;;;;;;;9.65;8.85;;;12.20;42.80;;;;;;6105959;23;20992;-73
2022/03/07 12:22:13;;;;;;;9.73;8.93;;;13.00;43.20;;;;;;6115160;23;20215;-73
2022/03/07 12:24:41;;;;;;;9.50;8.90;;;13.50;42.40;;;;;;6114208;23;20635;-73
2022/03/07 12:27:09;;;;;;;14.93;13.57;;;13.70;41.00;;;;;;6107028;23;20219;-73
2022/03/07 12:29:40;;;;;;;10.10;9.30;;;14.10;41.20;;;;;;6107917;23;20258;-73
2022/03/07 12:32:08;;;;;;;10.15;9.45;;;14.00;40.80;;;;;;6103394;23;20341;-74
2022/03/07 12:34:39;;;;;;;9.82;9.10;;;14.10;40.60;;;;;;6115561;23;20245;-74
2022/03/07 12:37:10;;;;;;;9.35;8.55;;;13.80;40.10;;;;;;6095280;23;20183;-74
2022/03/07 12:39:46;;;;;;;10.60;9.60;;;13.80;40.80;;;;;;6116743;23;20194;-74
2022/03/07 12:42:15;;;;;;;10.57;9.80;;;14.30;40.90;;;;;;6114055;23;20469;-74
2022/03/07 12:44:43;;;;;;;10.05;9.35;;;14.30;39.60;;;;;;6109277;23;20187;-73
2022/03/07 12:47:12;;;;;;;10.27;9.38;;;13.30;40.20;;;;;;6105336;23;20255;-72
2022/03/07 12:49:41;;;;;;;10.05;9.25;;;12.30;41.00;;;;;;6103063;23;20262;-73
2022/03/07 12:52:09;;;;;;;10.50;9.60;;;12.20;41.60;;;;;;6115818;23;20216;-73